Time;durP1;ratioP1;P1;durP2;ratioP2;P2;SDS_P1;SDS_P2;PMS_P1;PMS_P2;Temp;Humidity;BMP_temperature;BMP_pressure;BME280_temperature;BME280_humidity;BME280_pressure;Samples;Min_cycle;Max_cycle;Signal;HPM_P1;HPM_P2
2023/08/07 00:00:50;;;;;;;0.10;0.10;;;;;;;15.41;73.19;101476.56;5077466;28;20093;-81
2023/08/07 00:03:18;;;;;;;0.10;0.10;;;;;;;15.30;72.53;101459.97;5079113;28;20029;-81
2023/08/07 00:05:46;;;;;;;0.10;0.10;;;;;;;15.43;72.06;101477.38;5076697;28;20115;-80
2023/08/07 00:08:13;;;;;;;0.10;0.10;;;;;;;15.45;71.28;101464.88;5078988;28;20071;-80
2023/08/07 00:10:39;;;;;;;0.25;0.25;;;;;;;15.39;70.62;101466.84;5078936;28;20128;-80
2023/08/07 00:13:06;;;;;;;0.10;0.10;;;;;;;15.45;70.38;101461.31;5078745;28;20039;-80
2023/08/07 00:15:33;;;;;;;0.10;0.10;;;;;;;15.57;69.96;101465.41;5079941;28;20389;-80
2023/08/07 00:17:59;;;;;;;0.15;0.15;;;;;;;15.55;69.52;101472.59;5078706;28;20028;-79
2023/08/07 00:20:25;;;;;;;0.10;0.10;;;;;;;15.64;69.42;101466.97;5079092;28;20499;-81
2023/08/07 00:22:52;;;;;;;0.28;0.28;;;;;;;15.70;69.20;101472.09;5078970;28;20051;-79
2023/08/07 00:25:18;;;;;;;0.10;0.10;;;;;;;15.71;69.33;101460.50;5077600;28;20067;-80
2023/08/07 00:27:44;;;;;;;0.10;0.10;;;;;;;15.78;68.95;101464.72;5079102;28;20029;-79
2023/08/07 00:30:11;;;;;;;0.10;0.10;;;;;;;15.81;69.88;101459.31;5079422;28;20503;-80
2023/08/07 00:32:37;;;;;;;0.10;0.10;;;;;;;15.76;68.52;101461.22;5080230;28;20036;-80
2023/08/07 00:35:04;;;;;;;0.30;0.30;;;;;;;15.78;68.09;101459.38;5082925;28;20051;-81
2023/08/07 00:37:30;;;;;;;0.10;0.10;;;;;;;15.75;68.23;101478.19;5077002;28;20464;-80
2023/08/07 00:39:56;;;;;;;1.13;0.57;;;;;;;15.85;67.82;101465.47;5074485;28;20046;-80
2023/08/07 00:42:23;;;;;;;0.10;0.10;;;;;;;15.78;68.02;101475.41;5080700;28;20060;-81
2023/08/07 00:44:49;;;;;;;0.68;0.68;;;;;;;15.89;67.95;101460.88;5081873;28;20411;-80
2023/08/07 00:47:15;;;;;;;0.10;0.10;;;;;;;15.88;67.95;101465.34;5074304;28;20036;-79
2023/08/07 00:49:42;;;;;;;0.10;0.10;;;;;;;15.88;68.26;101489.41;5075931;28;20040;-80
2023/08/07 00:52:08;;;;;;;1.55;1.08;;;;;;;15.76;69.27;101508.44;5076576;28;20028;-80
2023/08/07 00:54:34;;;;;;;0.10;0.10;;;;;;;15.71;69.85;101492.56;5091793;28;20100;-80
2023/08/07 00:57:12;;;;;;;0.95;0.95;;;;;;;15.69;69.94;101497.94;5080808;28;20028;-81
2023/08/07 00:59:39;;;;;;;0.10;0.10;;;;;;;15.53;70.51;101492.19;5076128;28;20554;-80
2023/08/07 01:02:07;;;;;;;0.43;0.43;;;;;;;15.51;69.90;101495.84;5074679;28;20033;-81
2023/08/07 01:04:33;;;;;;;0.52;0.52;;;;;;;15.40;70.09;101496.16;5078314;28;20032;-81
2023/08/07 01:06:59;;;;;;;0.10;0.10;;;;;;;15.42;70.25;101483.66;5082288;28;20037;-81
2023/08/07 01:09:25;;;;;;;0.10;0.10;;;;;;;15.42;70.44;101482.78;5083761;28;20032;-80
2023/08/07 01:12:09;;;;;;;0.15;0.15;;;;;;;15.49;70.14;101490.56;5078637;28;20119;-80
2023/08/07 01:14:58;;;;;;;0.10;0.10;;;;;;;15.55;69.66;101502.84;5082769;28;20024;-81
2023/08/07 01:17:25;;;;;;;1.30;1.27;;;;;;;15.40;70.29;101501.50;5078191;28;20067;-81
2023/08/07 01:19:52;;;;;;;0.10;0.10;;;;;;;15.38;70.58;101498.03;5084215;28;20028;-81
2023/08/07 01:22:19;;;;;;;0.10;0.10;;;;;;;15.33;71.35;101494.63;5083954;28;20056;-81
2023/08/07 01:24:47;;;;;;;0.10;0.10;;;;;;;15.32;71.70;101499.06;5076766;28;20032;-81
2023/08/07 01:30:28;;;;;;;0.10;0.10;;;;;;;15.40;72.22;101487.28;5114847;27;20551;-81
2023/08/07 01:33:06;;;;;;;0.10;0.10;;;;;;;15.38;72.11;101482.00;5115480;28;20036;-81
2023/08/07 01:35:40;;;;;;;0.20;0.20;;;;;;;15.44;71.58;101488.94;5109811;28;20032;-81
2023/08/07 01:38:08;;;;;;;0.10;0.10;;;;;;;15.44;71.88;101492.50;5116173;28;20035;-81
2023/08/07 01:40:37;;;;;;;0.30;0.30;;;;;;;15.45;71.73;101486.25;5112509;28;20437;-81
2023/08/07 01:43:03;;;;;;;0.10;0.10;;;;;;;15.47;71.52;101487.03;5114438;28;20055;-81
2023/08/07 01:45:29;;;;;;;0.10;0.10;;;;;;;15.42;71.03;101496.13;5100982;28;20107;-81
2023/08/07 01:47:56;;;;;;;0.68;0.63;;;;;;;15.45;70.79;101496.91;5116263;28;20024;-81
2023/08/07 01:50:23;;;;;;;0.50;0.50;;;;;;;15.26;70.92;101498.38;5115282;28;20521;-81
2023/08/07 01:52:50;;;;;;;0.15;0.15;;;;;;;15.47;70.72;101489.72;5115456;28;20054;-80
2023/08/07 01:55:17;;;;;;;0.40;0.40;;;;;;;15.45;70.53;101499.59;5110617;28;20445;-80
2023/08/07 01:57:44;;;;;;;0.10;0.10;;;;;;;15.37;70.63;101499.78;5119144;28;20465;-81
2023/08/07 02:00:11;;;;;;;0.10;0.10;;;;;;;15.43;70.34;101496.06;5109366;28;20070;-81
2023/08/07 02:02:37;;;;;;;0.10;0.10;;;;;;;15.44;70.39;101497.84;5118723;28;20500;-81
2023/08/07 02:05:04;;;;;;;0.10;0.10;;;;;;;15.51;70.14;101499.41;5110591;28;20028;-80
2023/08/07 02:07:31;;;;;;;1.73;1.65;;;;;;;15.38;70.16;101495.34;5104730;28;20464;-81
2023/08/07 02:09:57;;;;;;;0.03;0.03;;;;;;;15.57;69.71;101500.13;5118313;28;20031;-81
2023/08/07 02:12:26;;;;;;;1.65;1.55;;;;;;;15.53;69.73;101492.19;5117579;28;20461;-80
2023/08/07 02:14:52;;;;;;;0.10;0.10;;;;;;;15.59;69.42;101496.50;5120440;28;20028;-81
2023/08/07 02:17:20;;;;;;;0.10;0.10;;;;;;;15.65;69.19;101500.75;5118141;28;20051;-81
2023/08/07 02:19:46;;;;;;;1.00;1.00;;;;;;;15.71;69.01;101491.69;5108308;28;20028;-81
2023/08/07 02:22:12;;;;;;;0.10;0.10;;;;;;;15.75;69.17;101490.66;5116566;28;20087;-81
2023/08/07 02:24:39;;;;;;;0.20;0.20;;;;;;;15.74;68.71;101492.47;5122578;28;20036;-79
2023/08/07 02:27:05;;;;;;;0.20;0.20;;;;;;;15.72;68.05;101502.31;5125096;28;20024;-80
2023/08/07 02:29:34;;;;;;;0.10;0.10;;;;;;;15.79;68.20;101498.53;5115788;28;20028;-81
2023/08/07 02:32:02;;;;;;;0.10;0.10;;;;;;;15.78;68.23;101499.47;5117874;28;20081;-81
2023/08/07 02:34:29;;;;;;;0.10;0.10;;;;;;;15.79;67.53;101498.53;5107054;28;20503;-81
2023/08/07 02:36:55;;;;;;;0.10;0.10;;;;;;;15.79;67.26;101495.88;5106057;28;20123;-81
2023/08/07 02:39:22;;;;;;;0.10;0.10;;;;;;;15.83;67.35;101500.22;5109223;28;20055;-81
2023/08/07 02:41:49;;;;;;;0.10;0.10;;;;;;;15.94;66.81;101477.66;5106889;28;20031;-81
2023/08/07 02:44:17;;;;;;;0.10;0.10;;;;;;;15.88;66.73;101484.06;5112996;28;20035;-81
2023/08/07 02:46:43;;;;;;;0.13;0.13;;;;;;;15.85;66.90;101498.38;5094014;28;20050;-80
2023/08/07 02:49:09;;;;;;;0.10;0.10;;;;;;;15.81;67.11;101499.38;5095331;28;20032;-80
2023/08/07 02:51:35;;;;;;;0.10;0.10;;;;;;;15.97;67.49;101494.44;5091863;28;20579;-80
2023/08/07 02:54:01;;;;;;;9.13;1.65;;;;;;;15.97;67.67;101501.59;5096867;28;20104;-81
2023/08/07 02:56:28;;;;;;;0.25;0.25;;;;;;;15.94;68.17;101501.69;5101424;28;20036;-81
2023/08/07 02:58:54;;;;;;;0.10;0.10;;;;;;;15.94;68.92;101499.03;5097052;28;20379;-81
2023/08/07 03:01:21;;;;;;;0.10;0.10;;;;;;;15.79;69.75;101509.22;5094247;28;20025;-81
2023/08/07 03:03:47;;;;;;;0.63;0.63;;;;;;;15.79;69.52;101503.88;5100050;28;20169;-81
2023/08/07 03:06:13;;;;;;;0.10;0.10;;;;;;;15.76;69.93;101493.28;5097912;28;20046;-81
2023/08/07 03:08:39;;;;;;;0.13;0.13;;;;;;;15.75;69.72;101506.69;5095774;28;20485;-81
2023/08/07 03:11:05;;;;;;;1.63;1.52;;;;;;;15.56;70.49;101507.25;5082361;28;20059;-81
2023/08/07 03:13:31;;;;;;;0.08;0.08;;;;;;;15.63;70.09;101521.31;5081452;28;20394;-81
2023/08/07 03:16:02;;;;;;;0.10;0.10;;;;;;;15.73;69.75;101509.44;5087206;28;20016;-81
2023/08/07 03:18:28;;;;;;;0.10;0.10;;;;;;;15.78;69.84;101503.94;5083485;28;20027;-81
2023/08/07 03:20:56;;;;;;;0.10;0.10;;;;;;;15.77;69.92;101507.53;5082266;28;20031;-79
2023/08/07 03:23:23;;;;;;;0.10;0.10;;;;;;;15.72;70.02;101505.00;5089940;28;20116;-81
2023/08/07 03:25:50;;;;;;;0.17;0.17;;;;;;;15.84;70.42;101501.13;5101745;28;20040;-80
2023/08/07 03:28:16;;;;;;;0.32;0.32;;;;;;;15.81;70.44;101494.03;5096236;28;20016;-81
2023/08/07 03:30:44;;;;;;;0.10;0.10;;;;;;;15.83;70.53;101497.56;5104343;28;20052;-78
2023/08/07 03:33:10;;;;;;;0.10;0.10;;;;;;;15.88;70.10;101501.91;5107454;28;20051;-79
2023/08/07 03:35:36;;;;;;;0.10;0.10;;;;;;;15.83;70.88;101500.22;5103831;28;20040;-81
2023/08/07 03:38:02;;;;;;;0.10;0.10;;;;;;;15.88;70.66;101492.06;5100385;28;20094;-80
2023/08/07 03:40:28;;;;;;;0.10;0.10;;;;;;;15.87;70.70;101503.69;5111174;28;20016;-79
2023/08/07 03:42:54;;;;;;;0.10;0.10;;;;;;;15.87;70.89;101500.16;5113995;28;20016;-81
2023/08/07 03:45:20;;;;;;;0.10;0.10;;;;;;;15.89;71.12;101499.16;5114748;28;20043;-78
2023/08/07 03:47:46;;;;;;;0.10;0.10;;;;;;;15.97;70.49;101497.09;5116549;28;20099;-79
2023/08/07 03:50:12;;;;;;;0.10;0.10;;;;;;;15.95;70.78;101500.75;5115086;28;20040;-79
2023/08/07 03:52:39;;;;;;;1.00;0.90;;;;;;;15.99;70.75;101487.25;5113096;28;20051;-81
2023/08/07 03:55:05;;;;;;;0.10;0.10;;;;;;;15.99;71.13;101495.28;5122450;28;20035;-79
2023/08/07 03:57:31;;;;;;;0.10;0.10;;;;;;;16.05;70.83;101499.56;5116309;28;20099;-79
2023/08/07 03:59:58;;;;;;;0.10;0.10;;;;;;;16.11;71.16;101504.69;5113678;28;20029;-79
2023/08/07 04:02:25;;;;;;;0.10;0.10;;;;;;;16.11;71.45;101503.81;5115464;28;20032;-79
2023/08/07 04:04:51;;;;;;;0.10;0.10;;;;;;;16.12;71.26;101495.72;5106729;28;20013;-79
2023/08/07 04:07:17;;;;;;;0.10;0.10;;;;;;;16.06;71.97;101498.59;5106616;28;20039;-81
2023/08/07 04:09:43;;;;;;;0.80;0.80;;;;;;;16.04;72.42;101500.47;5101501;28;20036;-81
2023/08/07 04:12:09;;;;;;;0.10;0.10;;;;;;;16.00;72.72;101502.38;5100573;28;20035;-81
2023/08/07 04:14:35;;;;;;;0.10;0.10;;;;;;;15.95;73.43;101498.06;5095210;28;20032;-81
2023/08/07 04:17:01;;;;;;;0.10;0.10;;;;;;;15.97;73.33;101494.44;5106174;28;20032;-81
2023/08/07 04:19:28;;;;;;;0.10;0.10;;;;;;;15.94;73.54;101497.22;5104062;28;20115;-79
2023/08/07 04:21:54;;;;;;;0.40;0.40;;;;;;;15.88;73.92;101512.59;5109184;28;20035;-80
2023/08/07 04:24:20;;;;;;;0.10;0.10;;;;;;;15.90;73.29;101500.03;5095105;28;20056;-80
2023/08/07 04:26:46;;;;;;;0.20;0.20;;;;;;;15.88;73.69;101501.91;5093548;28;20088;-80
2023/08/07 04:29:12;;;;;;;0.10;0.10;;;;;;;15.89;73.78;101504.50;5103442;28;20055;-80
2023/08/07 04:31:38;;;;;;;0.10;0.10;;;;;;;15.88;74.10;101508.09;5104358;28;20091;-80
2023/08/07 04:34:04;;;;;;;0.10;0.10;;;;;;;15.92;73.89;101520.44;5098581;28;20089;-80
2023/08/07 04:36:30;;;;;;;0.10;0.10;;;;;;;15.93;73.95;101526.66;5104339;28;20536;-81
2023/08/07 04:38:57;;;;;;;0.10;0.10;;;;;;;15.89;73.63;101525.00;5099704;28;20057;-81
2023/08/07 04:41:23;;;;;;;0.10;0.10;;;;;;;15.87;73.37;101518.84;5096792;28;20099;-81
2023/08/07 04:43:50;;;;;;;0.10;0.10;;;;;;;15.73;73.27;101528.13;5103337;28;20529;-81
2023/08/07 04:46:16;;;;;;;0.10;0.10;;;;;;;15.77;72.67;101532.44;5102107;28;20043;-81
2023/08/07 04:48:42;;;;;;;0.52;0.52;;;;;;;15.63;72.59;101534.69;5099749;28;20171;-81
2023/08/07 04:51:08;;;;;;;0.10;0.10;;;;;;;15.73;72.30;101530.78;5094635;28;20085;-81
2023/08/07 04:53:34;;;;;;;0.10;0.10;;;;;;;15.67;71.85;101539.00;5097018;28;20130;-81
2023/08/07 04:56:00;;;;;;;0.10;0.10;;;;;;;15.66;71.67;101530.13;5094312;28;20039;-81
2023/08/07 04:58:26;;;;;;;0.10;0.10;;;;;;;15.72;71.74;101555.75;5086014;28;20159;-79
2023/08/07 05:00:56;;;;;;;0.10;0.10;;;;;;;15.76;71.47;101545.84;5092383;28;20059;-80
2023/08/07 05:03:23;;;;;;;0.80;0.80;;;;;;;15.77;70.90;101548.47;5094291;28;20028;-81
2023/08/07 05:05:49;;;;;;;0.13;0.13;;;;;;;15.79;70.74;101538.63;5097893;28;20495;-81
2023/08/07 05:08:16;;;;;;;0.10;0.10;;;;;;;15.83;70.70;101553.66;5088191;28;20120;-81
2023/08/07 05:10:42;;;;;;;0.43;0.43;;;;;;;15.81;70.27;101550.16;5096470;28;20343;-80
2023/08/07 05:13:08;;;;;;;0.35;0.35;;;;;;;15.90;70.15;101546.34;5101523;28;20110;-81
2023/08/07 05:15:34;;;;;;;0.10;0.10;;;;;;;15.88;70.08;101556.19;5104769;28;20020;-81
2023/08/07 05:18:00;;;;;;;0.10;0.10;;;;;;;15.88;70.30;101568.69;5120266;28;20058;-79
2023/08/07 05:20:26;;;;;;;0.10;0.10;;;;;;;15.90;70.64;101574.84;5112022;28;20044;-80
2023/08/07 05:22:52;;;;;;;1.10;1.02;;;;;;;15.79;71.40;101569.81;5091316;28;20032;-78
2023/08/07 05:25:18;;;;;;;0.10;0.10;;;;;;;15.66;71.49;101572.88;5103201;28;20066;-81
2023/08/07 05:27:45;;;;;;;0.10;0.10;;;;;;;15.60;71.69;101569.47;5098657;28;20051;-80
2023/08/07 05:30:12;;;;;;;0.10;0.10;;;;;;;15.57;71.94;101561.56;5103169;28;20039;-80
2023/08/07 05:32:38;;;;;;;0.25;0.25;;;;;;;15.39;72.73;101569.19;5100557;28;20106;-80
2023/08/07 05:35:06;;;;;;;0.10;0.10;;;;;;;15.46;72.74;101572.56;5093077;28;20024;-79
2023/08/07 05:37:33;;;;;;;0.38;0.38;;;;;;;15.50;73.33;101579.53;5096912;28;20028;-79
2023/08/07 05:39:59;;;;;;;0.10;0.10;;;;;;;15.50;73.23;101582.22;5090411;28;20570;-80
2023/08/07 05:42:25;;;;;;;0.10;0.10;;;;;;;15.54;73.26;101575.88;5102732;28;20058;-80
2023/08/07 05:44:51;;;;;;;0.30;0.30;;;;;;;15.52;73.36;101583.94;5087724;28;20024;-81
2023/08/07 05:47:17;;;;;;;0.65;0.65;;;;;;;15.48;73.88;101584.09;5095165;28;20036;-80
2023/08/07 05:49:43;;;;;;;0.10;0.10;;;;;;;15.51;73.97;101584.88;5091313;28;20020;-80
2023/08/07 05:52:09;;;;;;;0.40;0.40;;;;;;;15.58;73.56;101592.72;5095648;28;20391;-80
2023/08/07 05:54:36;;;;;;;0.10;0.10;;;;;;;15.67;73.16;101593.28;5090711;28;20539;-80
2023/08/07 05:57:02;;;;;;;0.10;0.10;;;;;;;15.76;73.23;101585.94;5092420;28;20487;-80
2023/08/07 05:59:28;;;;;;;0.10;0.10;;;;;;;15.85;72.64;101583.91;5100651;28;20030;-80
2023/08/07 06:01:54;;;;;;;0.10;0.10;;;;;;;15.79;73.27;101599.22;5098100;28;20098;-80
2023/08/07 06:04:21;;;;;;;0.20;0.20;;;;;;;15.81;73.20;101608.94;5084593;28;20028;-78
2023/08/07 06:06:48;;;;;;;0.10;0.10;;;;;;;15.82;73.33;101617.84;5082533;28;20028;-81
2023/08/07 06:09:15;;;;;;;0.20;0.20;;;;;;;15.82;73.26;101624.06;5087854;28;20086;-81
2023/08/07 06:11:41;;;;;;;2.05;0.47;;;;;;;15.80;73.85;101622.31;5083483;28;20044;-81
2023/08/07 06:14:07;;;;;;;0.28;0.28;;;;;;;15.74;74.08;101611.81;5084731;28;20052;-81
2023/08/07 06:16:33;;;;;;;0.10;0.10;;;;;;;15.71;74.14;101622.59;5087688;28;20024;-81
2023/08/07 06:18:59;;;;;;;0.88;0.88;;;;;;;15.71;73.87;101627.94;5088543;28;20079;-81
2023/08/07 06:21:28;;;;;;;0.10;0.10;;;;;;;15.58;74.31;101627.44;5086189;28;20021;-81
2023/08/07 06:23:54;;;;;;;0.10;0.10;;;;;;;15.52;74.38;101626.66;5087615;28;20076;-79
2023/08/07 06:26:20;;;;;;;0.20;0.20;;;;;;;15.52;74.37;101631.13;5087476;28;20391;-81
2023/08/07 06:28:46;;;;;;;0.30;0.30;;;;;;;15.51;74.61;101627.59;5095923;28;20037;-80
2023/08/07 06:31:13;;;;;;;0.10;0.10;;;;;;;15.50;74.87;101625.84;5088037;28;20107;-81
2023/08/07 06:33:39;;;;;;;0.10;0.10;;;;;;;15.51;75.03;101632.06;5087521;28;20021;-81
2023/08/07 06:36:06;;;;;;;0.10;0.10;;;;;;;15.52;75.16;101629.31;5087027;28;20029;-81
2023/08/07 06:38:32;;;;;;;0.10;0.10;;;;;;;15.56;75.69;101637.28;5087242;28;20042;-81
2023/08/07 06:40:58;;;;;;;0.10;0.10;;;;;;;15.60;75.92;101637.16;5087178;28;20511;-81
2023/08/07 06:43:24;;;;;;;0.98;0.98;;;;;;;15.64;75.85;101640.63;5094557;28;20112;-80
2023/08/07 06:45:51;;;;;;;0.10;0.10;;;;;;;15.71;75.91;101636.81;5086795;28;20032;-80
2023/08/07 06:48:17;;;;;;;0.10;0.10;;;;;;;15.73;75.81;101629.66;5085435;28;20028;-81
2023/08/07 06:50:44;;;;;;;0.10;0.10;;;;;;;15.73;75.93;101629.66;5086303;28;20050;-81
2023/08/07 06:53:10;;;;;;;0.50;0.50;;;;;;;15.70;76.09;101632.41;5084828;28;20025;-82
2023/08/07 06:55:36;;;;;;;0.00;0.00;;;;;;;15.68;76.21;101637.78;5085381;28;20020;-82
2023/08/07 06:58:02;;;;;;;0.10;0.10;;;;;;;15.69;75.78;101630.66;5086020;28;20087;-81
2023/08/07 07:00:28;;;;;;;0.32;0.32;;;;;;;15.65;75.87;101634.31;5086801;28;20029;-81
2023/08/07 07:02:54;;;;;;;0.00;0.00;;;;;;;15.78;75.41;101641.06;5095453;28;20540;-80
2023/08/07 07:05:20;;;;;;;0.10;0.10;;;;;;;15.78;75.72;101649.09;5098661;28;20057;-80
2023/08/07 07:07:46;;;;;;;0.10;0.10;;;;;;;15.85;75.64;101645.34;5106481;28;20114;-81
2023/08/07 07:10:12;;;;;;;0.17;0.17;;;;;;;15.89;75.09;101648.81;5112413;28;20059;-82
2023/08/07 07:12:38;;;;;;;0.25;0.25;;;;;;;15.96;74.61;101642.38;5107397;28;20093;-80
2023/08/07 07:15:05;;;;;;;2.33;2.05;;;;;;;16.05;73.80;101649.25;5096937;28;20117;-80
2023/08/07 07:17:31;;;;;;;0.10;0.10;;;;;;;16.06;72.43;101645.63;5102597;28;20024;-79
2023/08/07 07:19:57;;;;;;;0.10;0.10;;;;;;;16.16;72.20;101652.47;5094877;28;20069;-79
2023/08/07 07:22:23;;;;;;;0.10;0.10;;;;;;;16.27;72.07;101659.28;5104994;28;20024;-78
2023/08/07 07:24:50;;;;;;;0.10;0.10;;;;;;;16.13;69.56;101659.69;5091955;28;20058;-79
2023/08/07 07:27:16;;;;;;;0.45;0.45;;;;;;;16.29;69.23;101650.28;5097747;28;20030;-79
2023/08/07 07:29:42;;;;;;;0.10;0.10;;;;;;;16.38;68.74;101661.63;5096601;28;20053;-79
2023/08/07 07:32:08;;;;;;;0.10;0.10;;;;;;;16.42;68.00;101664.13;5083737;28;20097;-80
2023/08/07 07:34:34;;;;;;;0.20;0.20;;;;;;;16.46;67.22;101654.22;5101892;28;20059;-80
2023/08/07 07:37:00;;;;;;;0.20;0.20;;;;;;;16.58;67.33;101663.66;5098314;28;20024;-80
2023/08/07 07:39:26;;;;;;;0.10;0.10;;;;;;;16.55;66.40;101670.00;5092282;28;20387;-79
2023/08/07 07:41:52;;;;;;;0.20;0.20;;;;;;;16.62;65.64;101671.53;5099690;28;20035;-79
2023/08/07 07:44:18;;;;;;;0.82;0.77;;;;;;;16.69;65.27;101674.88;5095389;28;20035;-79
2023/08/07 07:46:44;;;;;;;0.10;0.10;;;;;;;16.78;64.41;101677.25;5093320;28;20050;-79
2023/08/07 07:49:10;;;;;;;0.20;0.20;;;;;;;16.77;63.46;101679.97;5088624;28;20085;-79
2023/08/07 07:51:37;;;;;;;0.10;0.10;;;;;;;16.85;64.47;101677.94;5092786;28;20433;-80
2023/08/07 07:54:03;;;;;;;0.10;0.10;;;;;;;16.81;62.35;101682.53;5087014;28;20028;-80
2023/08/07 07:56:29;;;;;;;0.20;0.20;;;;;;;16.80;61.33;101685.25;5088825;28;20028;-79
2023/08/07 07:58:56;;;;;;;0.10;0.10;;;;;;;16.86;60.97;101700.22;5087689;28;20084;-79
2023/08/07 08:01:22;;;;;;;0.10;0.10;;;;;;;17.02;61.34;101674.72;5090208;28;20034;-80
2023/08/07 08:03:49;;;;;;;0.10;0.10;;;;;;;17.20;62.08;101677.72;5087555;28;20028;-81
2023/08/07 08:06:15;;;;;;;14.80;3.72;;;;;;;17.18;61.93;101691.13;5095682;28;20036;-80
2023/08/07 08:08:42;;;;;;;0.10;0.10;;;;;;;17.30;60.86;101689.84;5109391;28;20076;-78
2023/08/07 08:11:08;;;;;;;0.45;0.45;;;;;;;17.19;59.55;101686.69;5109247;28;20055;-79
2023/08/07 08:13:38;;;;;;;1.90;1.17;;;;;;;17.39;61.31;101689.53;5096162;28;20040;-81
2023/08/07 08:16:05;;;;;;;0.10;0.10;;;;;;;17.48;59.85;101698.19;5097879;28;20059;-81
2023/08/07 08:18:31;;;;;;;1.40;0.90;;;;;;;17.54;59.75;101701.50;5085567;28;20016;-81
2023/08/07 08:20:57;;;;;;;0.20;0.20;;;;;;;17.43;57.36;101717.97;5096421;28;20157;-81
2023/08/07 08:23:23;;;;;;;0.10;0.10;;;;;;;17.73;59.36;101707.09;5094650;28;20032;-80
2023/08/07 08:25:50;;;;;;;0.10;0.10;;;;;;;17.74;58.04;101716.00;5096251;28;20382;-81
2023/08/07 08:28:16;;;;;;;0.10;0.10;;;;;;;17.83;58.50;101706.75;5104030;28;20027;-81
2023/08/07 08:30:43;;;;;;;0.10;0.10;;;;;;;17.94;57.14;101723.34;5094477;28;20024;-81
2023/08/07 08:33:12;;;;;;;0.20;0.20;;;;;;;18.08;58.49;101710.31;5096072;28;20039;-81
2023/08/07 08:35:38;;;;;;;0.10;0.10;;;;;;;18.16;58.11;101722.56;5090063;28;20020;-82
2023/08/07 08:38:04;;;;;;;0.70;0.52;;;;;;;18.13;55.21;101725.34;5095912;28;20390;-81
2023/08/07 08:40:31;;;;;;;0.35;0.35;;;;;;;18.23;55.86;101724.94;5095094;28;20038;-81
2023/08/07 08:43:00;;;;;;;0.20;0.20;;;;;;;18.10;54.70;101729.88;5090823;28;20070;-81
2023/08/07 08:45:27;;;;;;;0.20;0.20;;;;;;;18.10;54.67;101731.69;5082914;28;20107;-80
2023/08/07 08:48:00;;;;;;;0.10;0.10;;;;;;;18.21;55.42;101731.28;5074650;28;20075;-79
2023/08/07 08:50:27;;;;;;;0.10;0.10;;;;;;;18.15;54.64;101728.84;5075307;28;20028;-78
2023/08/07 08:52:55;;;;;;;0.95;0.95;;;;;;;18.34;55.83;101721.81;5084509;28;20041;-80
2023/08/07 08:55:21;;;;;;;0.10;0.10;;;;;;;18.43;55.32;101734.03;5079597;28;20061;-81
2023/08/07 08:57:49;;;;;;;0.63;0.63;;;;;;;18.39;53.12;101722.53;5084238;28;20043;-81
2023/08/07 09:00:18;;;;;;;0.10;0.10;;;;;;;18.45;53.33;101729.47;5076051;28;20111;-79
2023/08/07 09:02:47;;;;;;;0.10;0.10;;;;;;;18.59;54.27;101727.13;5080380;28;20058;-80
2023/08/07 09:05:16;;;;;;;0.10;0.10;;;;;;;18.70;52.96;101745.47;5086184;28;20034;-81
2023/08/07 09:07:43;;;;;;;0.90;0.90;;;;;;;18.79;54.34;101754.09;5074509;28;20032;-80
2023/08/07 09:10:11;;;;;;;0.10;0.10;;;;;;;18.84;53.70;101727.94;5072429;28;20031;-80
2023/08/07 09:12:41;;;;;;;0.10;0.10;;;;;;;18.84;52.57;101722.56;5080776;28;20032;-80
2023/08/07 09:15:10;;;;;;;0.20;0.20;;;;;;;18.88;51.65;101726.91;5077480;28;20457;-80
2023/08/07 09:17:41;;;;;;;0.10;0.10;;;;;;;18.97;51.49;101739.09;5078697;28;20063;-81
2023/08/07 09:20:11;;;;;;;0.30;0.30;;;;;;;19.11;52.16;101738.53;5078210;28;20059;-80
2023/08/07 09:22:39;;;;;;;0.10;0.10;;;;;;;19.17;52.12;101741.81;5074714;28;20032;-81
2023/08/07 09:25:05;;;;;;;0.32;0.32;;;;;;;19.13;52.12;101747.38;5077424;28;20020;-80
2023/08/07 09:27:33;;;;;;;0.10;0.10;;;;;;;18.98;51.49;101748.88;5077640;28;20044;-81
2023/08/07 09:29:59;;;;;;;0.32;0.32;;;;;;;19.17;52.85;101743.63;5078359;28;20035;-81
2023/08/07 09:32:25;;;;;;;0.10;0.10;;;;;;;19.33;52.67;101750.09;5074510;28;20499;-81
2023/08/07 09:34:52;;;;;;;0.10;0.10;;;;;;;19.30;51.77;101747.56;5078388;28;20043;-80
2023/08/07 09:37:18;;;;;;;0.00;0.00;;;;;;;19.50;52.57;101757.47;5079478;28;20077;-81
2023/08/07 09:39:44;;;;;;;0.10;0.10;;;;;;;19.55;49.77;101749.16;5077969;28;20043;-81
2023/08/07 09:42:15;;;;;;;0.25;0.25;;;;;;;19.57;49.85;101755.38;5078216;28;20028;-82
2023/08/07 09:44:42;;;;;;;2.80;1.70;;;;;;;19.52;49.64;101755.56;5078244;28;20067;-81
2023/08/07 09:47:14;;;;;;;0.10;0.10;;;;;;;19.16;49.26;101766.06;5077004;28;20278;-81
2023/08/07 09:49:41;;;;;;;0.10;0.10;;;;;;;19.33;50.25;101763.53;5082612;28;20040;-81
2023/08/07 09:52:09;;;;;;;0.10;0.10;;;;;;;19.47;50.88;101751.34;5087729;28;20040;-81
2023/08/07 09:54:36;;;;;;;0.10;0.10;;;;;;;19.65;50.74;101755.91;5081834;28;20557;-83
2023/08/07 09:57:03;;;;;;;0.30;0.30;;;;;;;19.67;50.80;101762.09;5082487;28;20111;-80
2023/08/07 09:59:29;;;;;;;8.23;1.95;;;;;;;19.63;49.80;101757.78;5081589;28;20024;-80
2023/08/07 10:01:56;;;;;;;0.10;0.10;;;;;;;19.81;50.40;101761.50;5081013;28;20027;-80
2023/08/07 10:04:22;;;;;;;0.00;0.00;;;;;;;19.98;50.37;101763.44;5097006;28;20032;-81
2023/08/07 10:06:49;;;;;;;0.10;0.10;;;;;;;20.07;49.84;101758.59;5107759;28;20031;-81
2023/08/07 10:09:15;;;;;;;0.10;0.10;;;;;;;20.06;47.20;101759.53;5097440;28;20036;-81
2023/08/07 10:11:42;;;;;;;0.10;0.10;;;;;;;20.08;48.74;101766.59;5098698;28;20486;-81
2023/08/07 10:14:09;;;;;;;1.42;1.33;;;;;;;19.92;48.56;101785.25;5092657;28;20036;-80
2023/08/07 10:16:39;;;;;;;0.00;0.00;;;;;;;20.03;48.36;101774.88;5089890;28;20395;-82
2023/08/07 10:19:06;;;;;;;0.10;0.10;;;;;;;19.79;47.01;101784.00;5088294;28;20028;-82
2023/08/07 10:21:38;;;;;;;0.20;0.20;;;;;;;19.91;47.26;101766.50;5098495;28;20173;-83
2023/08/07 10:24:13;;;;;;;;;;;;;;;20.08;46.75;101768.44;5102856;28;20047;-82
2023/08/07 10:26:45;;;;;;;0.10;0.10;;;;;;;20.04;46.66;101773.94;5097378;28;19908;-81
2023/08/07 10:29:17;;;;;;;0.20;0.20;;;;;;;20.11;47.11;101779.03;5098121;28;20375;-80
2023/08/07 10:31:45;;;;;;;0.10;0.10;;;;;;;20.15;47.54;101780.63;5090667;28;20081;-82
2023/08/07 10:34:11;;;;;;;0.00;0.00;;;;;;;20.21;47.06;101780.34;5094520;28;20027;-82
2023/08/07 10:36:40;;;;;;;0.03;0.03;;;;;;;20.26;47.23;101780.16;5099371;28;20062;-82
2023/08/07 10:39:11;;;;;;;0.22;0.22;;;;;;;20.32;47.10;101778.03;5094827;28;20078;-82
2023/08/07 10:41:44;;;;;;;0.00;0.00;;;;;;;20.27;45.54;101801.59;5097592;28;20027;-82
2023/08/07 10:44:21;;;;;;;1.48;1.33;;;;;;;20.36;44.10;101787.75;5095373;28;20106;-81
2023/08/07 10:50:10;;;;;;;0.10;0.10;;;;;;;20.62;44.87;101785.66;4593906;27;15770076;-82
2023/08/07 10:52:45;;;;;;;0.00;0.00;;;;;;;20.49;44.90;101784.47;5119713;27;20050;-82
2023/08/07 10:55:42;;;;;;;;;;;;;;;;;;;;;
2023/08/07 10:58:22;;;;;;;0.10;0.10;;;;;;;20.46;44.99;101811.53;5038328;28;20044;-82
2023/08/07 11:01:38;;;;;;;0.10;0.10;;;;;;;20.44;44.64;101787.38;5132842;27;20044;-80
2023/08/07 11:04:25;;;;;;;0.10;0.10;;;;;;;20.38;44.86;101797.56;5127943;27;20099;-81
2023/08/07 11:07:04;;;;;;;0.20;0.20;;;;;;;20.52;45.52;101805.84;5105892;28;20035;-81
2023/08/07 11:09:41;;;;;;;0.10;0.10;;;;;;;20.42;44.51;101805.41;5121343;27;20071;-81
2023/08/07 11:12:10;;;;;;;0.15;0.15;;;;;;;20.59;44.79;101790.31;5120949;28;20030;-81
2023/08/07 11:15:14;;;;;;;0.57;0.57;;;;;;;20.70;44.35;101798.75;5124032;27;20490;-81
2023/08/07 11:17:56;;;;;;;0.10;0.10;;;;;;;20.96;45.39;101794.81;5077905;27;20039;-82
2023/08/07 11:20:28;;;;;;;0.28;0.28;;;;;;;21.17;44.58;101808.19;5126151;27;20490;-82
2023/08/07 11:22:55;;;;;;;0.10;0.10;;;;;;;21.16;43.30;101796.53;5113943;27;20109;-82
2023/08/07 11:25:21;;;;;;;0.10;0.10;;;;;;;21.27;43.34;101792.44;5120227;27;20089;-82
2023/08/07 11:27:57;;;;;;;0.08;0.08;;;;;;;21.36;43.74;101797.38;5108134;28;20028;-82
2023/08/07 11:30:23;;;;;;;1.95;1.23;;;;;;;21.28;43.31;101800.47;5121952;27;20550;-82
2023/08/07 11:32:55;;;;;;;0.10;0.10;;;;;;;21.42;43.71;101785.38;5135831;27;20091;-81
2023/08/07 11:35:22;;;;;;;;;;;;;;;21.77;43.45;101786.31;5131263;27;20023;-80